Terminal Aerodrome Forecast
Issued by NWS

Home | Current Version | Previous Version | Graphics & Text | Print | Product List | Glossary On
Versions: 1 2 3 4 5 6 7 8 9 10 11 12 13 14
000
FTUS43 KGRB 010540
TAFCWA
TAF
KCWA 010540Z 0106/0206 09009G18KT P6SM VCSH SCT030 BKN090
      WS018/08030KT
     FM010900 07008KT P6SM VCSH SCT025 BKN070 WS018/08030KT
     FM011200 05009G15KT P6SM BKN040 BKN090
     FM011800 04010G15KT P6SM SCT040 BKN100
     FM012200 07007KT P6SM SCT100=

USA.gov is the U.S. government's official web portal to all federal, state and local government web resources and services.